Airfield :
LOGIN :

Register | Disclaimer

   EN    FR    IT 

 










Legend :    VFR   Marginal VFR   IFR   Intensive IFR   Very Intensive IFR
Visi :
Ceiling :
>= 8 km
>= 3000ft
5 to 8 km
1000 to 3000 ft
1500m to 5 km
500 to 1000 ft
800 to 1500m
200 to 500 ft
< 800m
< 200 ft
Symbols :   Thunderstorms  Fog  Heavy snow  Heavy precipitations  Wind > 20 kt
SIGMETs :     Misc.  Thunderstorms  Icing  Turbulence  Mountain Waves  Volcanic Ashes






- Airport Elevation : 84 ft


LFBC - Cazaux

CURRENT METAR :
  • 180630Z AUTO 22007KT 9999 SCT009 20/18 Q1013 NOSIG

EXPIRED METARs :
  • 180600Z AUTO VRB03KT CAVOK 19/18 Q1012 NOSIG
  • 180530Z AUTO VRB03KT CAVOK 19/18 Q1012
  • 180500Z AUTO 24006KT 210V270 9999 BKN014 19/18 Q1012
  • 180430Z AUTO 25004KT 9999 BKN008 BKN012 18/18 Q1012
  • 180400Z AUTO 22007KT 9999 SCT007 BKN012 19/18 Q1012

TAF AMD TAF LFBC
Valid from the 18 at 05:00 until the 19 at 03:00 UTC


180500Z 1805/1903 24005KT 9999 BKN011 SCT050 BKN300
BECMG 1806/1808 SCT015 SCT035
FM181400 32010KT CAVOK
BECMG 1821/1822 SCT060CB BKN090 BKN200
TEMPO 1822/1903 2000 TSRA BKN012 BKN040CB BKN080



MET'MAP, your aeronautical weather chart ! - Copyright ORBIFLY December 2007 - Disclaimer

ORBIFLY MET'MAP TEAM :

Programming & Development : Alexandra Zaïnal
Concept & original design : Baudouin d'Aumeries
Assistance for programming : Marc-Olivier Méhu
Technical & hardware support : Manuel Goepfert

Contact : metmap@orbifly.com




SOURCES & CREDITS :

   NOAA